sensor_id;sensor_type;location;lat;lon;timestamp;pressure;altitude;pressure_sealevel;temperature
70123;BMP280;57489;37.404;24.920;2022-09-12T00:04:33;99546.13;;;28.22
70123;BMP280;57489;37.404;24.920;2022-09-12T00:09:33;99537.88;;;28.40
70123;BMP280;57489;37.404;24.920;2022-09-12T00:14:34;99543.59;;;28.49
70123;BMP280;57489;37.404;24.920;2022-09-12T00:19:35;99537.81;;;28.50
70123;BMP280;57489;37.404;24.920;2022-09-12T00:24:35;99540.06;;;28.56
70123;BMP280;57489;37.404;24.920;2022-09-12T00:29:36;99541.63;;;28.57
70123;BMP280;57489;37.404;24.920;2022-09-12T00:34:36;99538.97;;;28.49
70123;BMP280;57489;37.404;24.920;2022-09-12T00:39:37;99537.84;;;28.47
70123;BMP280;57489;37.404;24.920;2022-09-12T00:49:51;99531.25;;;28.51
70123;BMP280;57489;37.404;24.920;2022-09-12T00:55:14;99537.81;;;28.50
70123;BMP280;57489;37.404;24.920;2022-09-12T01:00:19;99530.13;;;28.45
70123;BMP280;57489;37.404;24.920;2022-09-12T01:05:22;99516.25;;;28.43
70123;BMP280;57489;37.404;24.920;2022-09-12T01:10:23;99513.56;;;28.43
70123;BMP280;57489;37.404;24.920;2022-09-12T01:15:24;99511.66;;;28.40
70123;BMP280;57489;37.404;24.920;2022-09-12T01:20:56;99512.34;;;28.51
70123;BMP280;57489;37.404;24.920;2022-09-12T01:26:08;99506.69;;;28.35
70123;BMP280;57489;37.404;24.920;2022-09-12T01:31:21;99502.47;;;28.34
70123;BMP280;57489;37.404;24.920;2022-09-12T01:36:33;99504.47;;;28.23
70123;BMP280;57489;37.404;24.920;2022-09-12T01:42:05;99502.50;;;28.27
70123;BMP280;57489;37.404;24.920;2022-09-12T01:47:09;99485.09;;;28.35
70123;BMP280;57489;37.404;24.920;2022-09-12T01:52:27;99495.47;;;28.40
70123;BMP280;57489;37.404;24.920;2022-09-12T01:57:34;99491.22;;;28.39
70123;BMP280;57489;37.404;24.920;2022-09-12T02:02:56;99490.06;;;28.40
70123;BMP280;57489;37.404;24.920;2022-09-12T02:08:21;99487.75;;;28.39
70123;BMP280;57489;37.404;24.920;2022-09-12T02:13:42;99483.25;;;28.25
70123;BMP280;57489;37.404;24.920;2022-09-12T02:18:49;99476.25;;;28.35
70123;BMP280;57489;37.404;24.920;2022-09-12T02:23:56;99470.81;;;28.38
70123;BMP280;57489;37.404;24.920;2022-09-12T02:28:58;99465.41;;;28.38
70123;BMP280;57489;37.404;24.920;2022-09-12T02:39:05;99462.72;;;28.38
70123;BMP280;57489;37.404;24.920;2022-09-12T02:44:06;99461.53;;;28.39
70123;BMP280;57489;37.404;24.920;2022-09-12T02:49:07;99452.28;;;28.40
70123;BMP280;57489;37.404;24.920;2022-09-12T02:54:08;99463.06;;;28.40
70123;BMP280;57489;37.404;24.920;2022-09-12T02:59:13;99467.72;;;28.36
70123;BMP280;57489;37.404;24.920;2022-09-12T03:10:10;99457.69;;;28.40
70123;BMP280;57489;37.404;24.920;2022-09-12T03:15:27;99454.66;;;28.31
70123;BMP280;57489;37.404;24.920;2022-09-12T03:20:52;99454.66;;;28.35
70123;BMP280;57489;37.404;24.920;2022-09-12T03:26:29;99453.56;;;28.25
70123;BMP280;57489;37.404;24.920;2022-09-12T03:31:31;99457.84;;;28.19
70123;BMP280;57489;37.404;24.920;2022-09-12T03:36:32;99450.06;;;28.28
70123;BMP280;57489;37.404;24.920;2022-09-12T03:41:32;99455.47;;;28.28
70123;BMP280;57489;37.404;24.920;2022-09-12T03:46:33;99457.03;;;28.29
70123;BMP280;57489;37.404;24.920;2022-09-12T03:51:33;99453.13;;;28.30
70123;BMP280;57489;37.404;24.920;2022-09-12T03:56:34;99455.41;;;28.35
70123;BMP280;57489;37.404;24.920;2022-09-12T04:01:34;99473.88;;;28.40
70123;BMP280;57489;37.404;24.920;2022-09-12T04:06:37;99473.09;;;28.40
70123;BMP280;57489;37.404;24.920;2022-09-12T04:11:37;99475.44;;;28.41
70123;BMP280;57489;37.404;24.920;2022-09-12T04:16:38;99474.81;;;28.19
70123;BMP280;57489;37.404;24.920;2022-09-12T04:21:38;99489.44;;;28.18
70123;BMP280;57489;37.404;24.920;2022-09-12T04:26:38;99493.78;;;28.05
70123;BMP280;57489;37.404;24.920;2022-09-12T04:31:40;99491.88;;;27.99
70123;BMP280;57489;37.404;24.920;2022-09-12T04:36:40;99502.72;;;27.91
70123;BMP280;57489;37.404;24.920;2022-09-12T04:41:41;99497.63;;;28.08
70123;BMP280;57489;37.404;24.920;2022-09-12T04:46:44;99500.28;;;28.15
70123;BMP280;57489;37.404;24.920;2022-09-12T04:51:45;99507.91;;;28.27
70123;BMP280;57489;37.404;24.920;2022-09-12T04:56:47;99507.03;;;28.41
70123;BMP280;57489;37.404;24.920;2022-09-12T05:01:48;99502.03;;;28.36
70123;BMP280;57489;37.404;24.920;2022-09-12T05:06:49;99515.63;;;28.25
70123;BMP280;57489;37.404;24.920;2022-09-12T05:11:50;99517.81;;;28.44
70123;BMP280;57489;37.404;24.920;2022-09-12T05:16:50;99516.22;;;28.50
70123;BMP280;57489;37.404;24.920;2022-09-12T05:21:51;99515.66;;;28.70
70123;BMP280;57489;37.404;24.920;2022-09-12T05:26:51;99518.09;;;28.98
70123;BMP280;57489;37.404;24.920;2022-09-12T05:31:52;99520.41;;;28.96
70123;BMP280;57489;37.404;24.920;2022-09-12T05:36:52;99517.94;;;29.13
70123;BMP280;57489;37.404;24.920;2022-09-12T05:41:53;99531.25;;;29.30
70123;BMP280;57489;37.404;24.920;2022-09-12T05:46:53;99528.69;;;29.20
70123;BMP280;57489;37.404;24.920;2022-09-12T05:51:54;99545.59;;;29.27
70123;BMP280;57489;37.404;24.920;2022-09-12T05:56:54;99560.38;;;29.16
70123;BMP280;57489;37.404;24.920;2022-09-12T06:01:55;99563.75;;;29.27
70123;BMP280;57489;37.404;24.920;2022-09-12T06:06:55;99563.75;;;29.23
70123;BMP280;57489;37.404;24.920;2022-09-12T06:11:56;99574.31;;;29.14
70123;BMP280;57489;37.404;24.920;2022-09-12T06:16:56;99563.84;;;29.20
70123;BMP280;57489;37.404;24.920;2022-09-12T06:21:57;99563.38;;;29.25
70123;BMP280;57489;37.404;24.920;2022-09-12T06:26:57;99573.44;;;29.21
70123;BMP280;57489;37.404;24.920;2022-09-12T06:31:58;99584.25;;;29.24
70123;BMP280;57489;37.404;24.920;2022-09-12T06:36:58;99587.25;;;29.30
70123;BMP280;57489;37.404;24.920;2022-09-12T06:41:59;99592.97;;;29.39
70123;BMP280;57489;37.404;24.920;2022-09-12T06:46:59;99598.81;;;29.34
70123;BMP280;57489;37.404;24.920;2022-09-12T06:52:00;99600.31;;;29.38
70123;BMP280;57489;37.404;24.920;2022-09-12T06:57:00;99601.00;;;29.46
70123;BMP280;57489;37.404;24.920;2022-09-12T07:02:01;99610.94;;;29.56
70123;BMP280;57489;37.404;24.920;2022-09-12T07:07:01;99607.06;;;29.57
70123;BMP280;57489;37.404;24.920;2022-09-12T07:12:02;99624.75;;;29.65
70123;BMP280;57489;37.404;24.920;2022-09-12T07:17:02;99624.75;;;29.65
70123;BMP280;57489;37.404;24.920;2022-09-12T07:22:03;99631.59;;;29.74
70123;BMP280;57489;37.404;24.920;2022-09-12T07:27:03;99625.75;;;29.79
70123;BMP280;57489;37.404;24.920;2022-09-12T07:32:05;99640.84;;;29.76
70123;BMP280;57489;37.404;24.920;2022-09-12T07:37:05;99635.50;;;29.73
70123;BMP280;57489;37.404;24.920;2022-09-12T07:42:06;99645.84;;;29.78
70123;BMP280;57489;37.404;24.920;2022-09-12T07:47:06;99646.16;;;29.87
70123;BMP280;57489;37.404;24.920;2022-09-12T07:52:07;99646.84;;;29.91
70123;BMP280;57489;37.404;24.920;2022-09-12T07:57:07;99645.84;;;30.08
70123;BMP280;57489;37.404;24.920;2022-09-12T08:02:12;99647.34;;;30.13
70123;BMP280;57489;37.404;24.920;2022-09-12T08:07:13;99650.56;;;30.04
70123;BMP280;57489;37.404;24.920;2022-09-12T08:12:14;99661.03;;;30.33
70123;BMP280;57489;37.404;24.920;2022-09-12T08:17:14;99661.75;;;30.37
70123;BMP280;57489;37.404;24.920;2022-09-12T08:22:15;99678.81;;;30.34
70123;BMP280;57489;37.404;24.920;2022-09-12T08:27:16;99675.22;;;30.13
70123;BMP280;57489;37.404;24.920;2022-09-12T08:32:16;99667.41;;;30.19
70123;BMP280;57489;37.404;24.920;2022-09-12T08:37:17;99658.97;;;30.13
70123;BMP280;57489;37.404;24.920;2022-09-12T08:43:02;99673.00;;;30.01
70123;BMP280;57489;37.404;24.920;2022-09-12T08:48:07;99663.66;;;30.09
70123;BMP280;57489;37.404;24.920;2022-09-12T08:53:13;99674.19;;;30.00
70123;BMP280;57489;37.404;24.920;2022-09-12T08:58:20;99671.47;;;30.00
70123;BMP280;57489;37.404;24.920;2022-09-12T09:09:10;99666.72;;;30.11
70123;BMP280;57489;37.404;24.920;2022-09-12T09:19:52;99664.81;;;30.39
70123;BMP280;57489;37.404;24.920;2022-09-12T09:24:59;99667.66;;;30.55
70123;BMP280;57489;37.404;24.920;2022-09-12T09:30:02;99658.00;;;30.54
70123;BMP280;57489;37.404;24.920;2022-09-12T09:35:21;99662.19;;;30.58
70123;BMP280;57489;37.404;24.920;2022-09-12T09:40:29;99676.25;;;30.50
70123;BMP280;57489;37.404;24.920;2022-09-12T09:45:32;99672.53;;;30.67
70123;BMP280;57489;37.404;24.920;2022-09-12T09:50:32;99674.56;;;30.33
70123;BMP280;57489;37.404;24.920;2022-09-12T09:55:39;99659.81;;;30.60
70123;BMP280;57489;37.404;24.920;2022-09-12T10:00:40;99656.41;;;30.56
70123;BMP280;57489;37.404;24.920;2022-09-12T10:05:44;99664.84;;;30.85
70123;BMP280;57489;37.404;24.920;2022-09-12T10:11:05;99661.75;;;30.87
70123;BMP280;57489;37.404;24.920;2022-09-12T10:16:17;99667.88;;;30.41
70123;BMP280;57489;37.404;24.920;2022-09-12T10:26:21;99670.50;;;30.48
70123;BMP280;57489;37.404;24.920;2022-09-12T10:31:49;99673.34;;;30.64
70123;BMP280;57489;37.404;24.920;2022-09-12T10:36:57;99677.19;;;30.90
70123;BMP280;57489;37.404;24.920;2022-09-12T10:41:59;99673.84;;;31.06
70123;BMP280;57489;37.404;24.920;2022-09-12T10:47:19;99675.00;;;31.28
70123;BMP280;57489;37.404;24.920;2022-09-12T10:52:23;99690.66;;;31.17
70123;BMP280;57489;37.404;24.920;2022-09-12T11:02:47;99689.25;;;30.85
70123;BMP280;57489;37.404;24.920;2022-09-12T11:07:56;99695.97;;;31.24
70123;BMP280;57489;37.404;24.920;2022-09-12T11:39:50;99687.81;;;31.47
70123;BMP280;57489;37.404;24.920;2022-09-12T11:45:01;99695.66;;;31.42
70123;BMP280;57489;37.404;24.920;2022-09-12T11:50:19;99685.81;;;31.51
70123;BMP280;57489;37.404;24.920;2022-09-12T11:55:26;99698.72;;;31.44
70123;BMP280;57489;37.404;24.920;2022-09-12T12:00:37;99692.03;;;31.29
70123;BMP280;57489;37.404;24.920;2022-09-12T12:05:48;99692.81;;;31.06
70123;BMP280;57489;37.404;24.920;2022-09-12T12:11:00;99689.75;;;31.04
70123;BMP280;57489;37.404;24.920;2022-09-12T12:16:06;99687.31;;;30.86
70123;BMP280;57489;37.404;24.920;2022-09-12T12:36:58;99679.25;;;31.06
70123;BMP280;57489;37.404;24.920;2022-09-12T12:52:58;99676.06;;;31.34
70123;BMP280;57489;37.404;24.920;2022-09-12T12:58:04;99676.78;;;31.15
70123;BMP280;57489;37.404;24.920;2022-09-12T13:08:31;99674.53;;;31.10
70123;BMP280;57489;37.404;24.920;2022-09-12T13:13:49;99668.34;;;31.09
70123;BMP280;57489;37.404;24.920;2022-09-12T13:18:50;99673.25;;;31.18
70123;BMP280;57489;37.404;24.920;2022-09-12T13:24:02;99668.88;;;31.01
70123;BMP280;57489;37.404;24.920;2022-09-12T13:29:21;99663.28;;;30.88
70123;BMP280;57489;37.404;24.920;2022-09-12T13:34:25;99671.47;;;30.84
70123;BMP280;57489;37.404;24.920;2022-09-12T13:40:02;99668.63;;;30.91
70123;BMP280;57489;37.404;24.920;2022-09-12T13:50:19;99659.63;;;30.75
70123;BMP280;57489;37.404;24.920;2022-09-12T13:55:32;99672.16;;;30.65
70123;BMP280;57489;37.404;24.920;2022-09-12T14:00:34;99681.47;;;30.64
70123;BMP280;57489;37.404;24.920;2022-09-12T14:05:36;99671.50;;;30.57
70123;BMP280;57489;37.404;24.920;2022-09-12T14:10:39;99677.66;;;30.58
70123;BMP280;57489;37.404;24.920;2022-09-12T14:15:44;99680.03;;;30.56
70123;BMP280;57489;37.404;24.920;2022-09-12T14:20:46;99668.59;;;30.45
70123;BMP280;57489;37.404;24.920;2022-09-12T14:25:48;99673.53;;;30.50
70123;BMP280;57489;37.404;24.920;2022-09-12T14:31:02;99676.00;;;30.41
70123;BMP280;57489;37.404;24.920;2022-09-12T14:36:22;99690.25;;;30.45
70123;BMP280;57489;37.404;24.920;2022-09-12T14:41:27;99674.91;;;30.35
70123;BMP280;57489;37.404;24.920;2022-09-12T14:46:38;99666.09;;;30.30
70123;BMP280;57489;37.404;24.920;2022-09-12T14:51:46;99665.69;;;30.28
70123;BMP280;57489;37.404;24.920;2022-09-12T14:56:55;99669.34;;;30.18
70123;BMP280;57489;37.404;24.920;2022-09-12T15:07:38;99660.47;;;30.14
70123;BMP280;57489;37.404;24.920;2022-09-12T15:12:38;99669.06;;;30.09
70123;BMP280;57489;37.404;24.920;2022-09-12T15:17:39;99673.06;;;29.97
70123;BMP280;57489;37.404;24.920;2022-09-12T15:22:40;99665.78;;;29.91
70123;BMP280;57489;37.404;24.920;2022-09-12T15:27:41;99659.34;;;29.81
70123;BMP280;57489;37.404;24.920;2022-09-12T15:32:42;99662.56;;;29.69
70123;BMP280;57489;37.404;24.920;2022-09-12T15:37:44;99665.78;;;29.57
70123;BMP280;57489;37.404;24.920;2022-09-12T15:42:44;99667.72;;;29.56
70123;BMP280;57489;37.404;24.920;2022-09-12T15:47:45;99662.88;;;29.40
70123;BMP280;57489;37.404;24.920;2022-09-12T15:52:46;99657.88;;;29.35
70123;BMP280;57489;37.404;24.920;2022-09-12T15:57:47;99660.31;;;29.23
70123;BMP280;57489;37.404;24.920;2022-09-12T16:02:49;99662.25;;;29.22
70123;BMP280;57489;37.404;24.920;2022-09-12T16:07:51;99663.88;;;29.13
70123;BMP280;57489;37.404;24.920;2022-09-12T16:12:52;99666.25;;;29.03
70123;BMP280;57489;37.404;24.920;2022-09-12T16:17:53;99672.50;;;28.93
70123;BMP280;57489;37.404;24.920;2022-09-12T16:22:53;99665.22;;;28.87
70123;BMP280;57489;37.404;24.920;2022-09-12T16:27:53;99671.03;;;28.81
70123;BMP280;57489;37.404;24.920;2022-09-12T16:32:54;99669.56;;;28.73
70123;BMP280;57489;37.404;24.920;2022-09-12T16:37:54;99671.16;;;28.64
70123;BMP280;57489;37.404;24.920;2022-09-12T16:42:55;99676.66;;;28.49
70123;BMP280;57489;37.404;24.920;2022-09-12T16:47:56;99675.13;;;28.48
70123;BMP280;57489;37.404;24.920;2022-09-12T16:52:57;99677.44;;;28.54
70123;BMP280;57489;37.404;24.920;2022-09-12T16:57:58;99666.63;;;28.50
70123;BMP280;57489;37.404;24.920;2022-09-12T17:02:58;99677.03;;;28.51
70123;BMP280;57489;37.404;24.920;2022-09-12T17:07:59;99678.94;;;28.55
70123;BMP280;57489;37.404;24.920;2022-09-12T17:13:01;99688.94;;;28.58
70123;BMP280;57489;37.404;24.920;2022-09-12T17:18:02;99693.56;;;28.61
70123;BMP280;57489;37.404;24.920;2022-09-12T17:23:02;99703.22;;;28.55
70123;BMP280;57489;37.404;24.920;2022-09-12T17:28:03;99716.69;;;28.62
70123;BMP280;57489;37.404;24.920;2022-09-12T17:33:03;99717.47;;;28.66
70123;BMP280;57489;37.404;24.920;2022-09-12T17:38:04;99723.63;;;28.63
70123;BMP280;57489;37.404;24.920;2022-09-12T17:43:05;99729.38;;;28.72
70123;BMP280;57489;37.404;24.920;2022-09-12T17:48:06;99728.28;;;28.66
70123;BMP280;57489;37.404;24.920;2022-09-12T17:53:07;99741.44;;;28.53
70123;BMP280;57489;37.404;24.920;2022-09-12T17:58:08;99747.22;;;28.51
70123;BMP280;57489;37.404;24.920;2022-09-12T18:03:08;99751.03;;;28.58
70123;BMP280;57489;37.404;24.920;2022-09-12T18:08:09;99755.28;;;28.62
70123;BMP280;57489;37.404;24.920;2022-09-12T18:13:09;99766.84;;;28.63
70123;BMP280;57489;37.404;24.920;2022-09-12T18:18:10;99766.00;;;28.80
70123;BMP280;57489;37.404;24.920;2022-09-12T18:23:10;99776.09;;;28.69
70123;BMP280;57489;37.404;24.920;2022-09-12T18:28:11;99777.25;;;28.64
70123;BMP280;57489;37.404;24.920;2022-09-12T18:33:11;99784.56;;;28.71
70123;BMP280;57489;37.404;24.920;2022-09-12T18:38:12;99783.00;;;28.70
70123;BMP280;57489;37.404;24.920;2022-09-12T18:43:12;99784.16;;;28.76
70123;BMP280;57489;37.404;24.920;2022-09-12T18:48:13;99780.66;;;28.75
70123;BMP280;57489;37.404;24.920;2022-09-12T18:53:13;99799.56;;;28.83
70123;BMP280;57489;37.404;24.920;2022-09-12T18:58:14;99798.75;;;28.86
70123;BMP280;57489;37.404;24.920;2022-09-12T19:03:14;99796.09;;;28.78
70123;BMP280;57489;37.404;24.920;2022-09-12T19:08:15;99796.50;;;28.70
70123;BMP280;57489;37.404;24.920;2022-09-12T19:13:15;99800.75;;;28.78
70123;BMP280;57489;37.404;24.920;2022-09-12T19:18:16;99806.22;;;28.53
70123;BMP280;57489;37.404;24.920;2022-09-12T19:23:17;99814.69;;;28.62
70123;BMP280;57489;37.404;24.920;2022-09-12T19:28:17;99822.81;;;28.59
70123;BMP280;57489;37.404;24.920;2022-09-12T19:33:18;99819.31;;;28.55
70123;BMP280;57489;37.404;24.920;2022-09-12T19:38:19;99819.38;;;28.47
70123;BMP280;57489;37.404;24.920;2022-09-12T19:43:19;99811.63;;;28.57
70123;BMP280;57489;37.404;24.920;2022-09-12T19:48:20;99810.47;;;28.50
70123;BMP280;57489;37.404;24.920;2022-09-12T19:53:21;99810.13;;;28.41
70123;BMP280;57489;37.404;24.920;2022-09-12T19:58:21;99810.50;;;28.43
70123;BMP280;57489;37.404;24.920;2022-09-12T20:03:22;99817.03;;;28.46
70123;BMP280;57489;37.404;24.920;2022-09-12T20:08:23;99805.44;;;28.60
70123;BMP280;57489;37.404;24.920;2022-09-12T20:13:23;99807.69;;;28.75
70123;BMP280;57489;37.404;24.920;2022-09-12T20:18:23;99815.41;;;28.70
70123;BMP280;57489;37.404;24.920;2022-09-12T20:23:24;99807.78;;;28.50
70123;BMP280;57489;37.404;24.920;2022-09-12T20:28:24;99813.19;;;28.36
70123;BMP280;57489;37.404;24.920;2022-09-12T20:33:25;99808.53;;;28.55
70123;BMP280;57489;37.404;24.920;2022-09-12T20:38:25;99795.50;;;28.28
70123;BMP280;57489;37.404;24.920;2022-09-12T20:43:26;99801.63;;;28.43
70123;BMP280;57489;37.404;24.920;2022-09-12T20:48:26;99804.38;;;28.25
70123;BMP280;57489;37.404;24.920;2022-09-12T20:53:27;99810.50;;;28.43
70123;BMP280;57489;37.404;24.920;2022-09-12T20:58:28;99804.75;;;28.20
70123;BMP280;57489;37.404;24.920;2022-09-12T21:03:28;99811.28;;;28.44
70123;BMP280;57489;37.404;24.920;2022-09-12T21:08:30;99803.22;;;28.12
70123;BMP280;57489;37.404;24.920;2022-09-12T21:13:31;99810.16;;;28.09
70123;BMP280;57489;37.404;24.920;2022-09-12T21:18:33;99808.63;;;28.19
70123;BMP280;57489;37.404;24.920;2022-09-12T21:23:33;99817.09;;;27.92
70123;BMP280;57489;37.404;24.920;2022-09-12T21:28:34;99816.00;;;27.79
70123;BMP280;57489;37.404;24.920;2022-09-12T21:33:35;99807.91;;;27.79
70123;BMP280;57489;37.404;24.920;2022-09-12T21:38:35;99820.97;;;28.13
70123;BMP280;57489;37.404;24.920;2022-09-12T21:43:37;99816.28;;;28.42
70123;BMP280;57489;37.404;24.920;2022-09-12T21:48:37;99823.19;;;28.61
70123;BMP280;57489;37.404;24.920;2022-09-12T21:53:38;99816.63;;;28.55
70123;BMP280;57489;37.404;24.920;2022-09-12T21:58:38;99820.53;;;28.46
70123;BMP280;57489;37.404;24.920;2022-09-12T22:03:39;99807.84;;;28.11
70123;BMP280;57489;37.404;24.920;2022-09-12T22:08:39;99807.91;;;27.79
70123;BMP280;57489;37.404;24.920;2022-09-12T22:13:40;99810.19;;;27.84
70123;BMP280;57489;37.404;24.920;2022-09-12T22:18:41;99807.50;;;27.77
70123;BMP280;57489;37.404;24.920;2022-09-12T22:23:41;99810.19;;;27.63
70123;BMP280;57489;37.404;24.920;2022-09-12T22:28:42;99805.50;;;27.39
70123;BMP280;57489;37.404;24.920;2022-09-12T22:33:43;99800.19;;;27.60
70123;BMP280;57489;37.404;24.920;2022-09-12T22:38:43;99800.16;;;27.46
70123;BMP280;57489;37.404;24.920;2022-09-12T22:43:44;99796.28;;;27.32
70123;BMP280;57489;37.404;24.920;2022-09-12T22:48:44;99792.84;;;27.43
70123;BMP280;57489;37.404;24.920;2022-09-12T22:53:45;99786.28;;;27.44
70123;BMP280;57489;37.404;24.920;2022-09-12T22:58:46;99782.47;;;27.45
70123;BMP280;57489;37.404;24.920;2022-09-12T23:03:46;99773.22;;;27.53
70123;BMP280;57489;37.404;24.920;2022-09-12T23:08:46;99774.75;;;27.40
70123;BMP280;57489;37.404;24.920;2022-09-12T23:13:49;99762.38;;;27.24
70123;BMP280;57489;37.404;24.920;2022-09-12T23:18:50;99761.97;;;27.15
70123;BMP280;57489;37.404;24.920;2022-09-12T23:23:51;99764.69;;;27.08
70123;BMP280;57489;37.404;24.920;2022-09-12T23:28:54;99768.44;;;26.86
70123;BMP280;57489;37.404;24.920;2022-09-12T23:33:56;99768.41;;;26.78
70123;BMP280;57489;37.404;24.920;2022-09-12T23:38:57;99764.63;;;26.87
70123;BMP280;57489;37.404;24.920;2022-09-12T23:43:58;99762.34;;;26.96
70123;BMP280;57489;37.404;24.920;2022-09-12T23:48:58;99763.13;;;26.96
70123;BMP280;57489;37.404;24.920;2022-09-12T23:53:59;99767.00;;;27.06
70123;BMP280;57489;37.404;24.920;2022-09-12T23:58:59;99770.44;;;27.17
